Time;durP1;ratioP1;P1;durP2;ratioP2;P2;SDS_P1;SDS_P2;PMS_P1;PMS_P2;Temp;Humidity;BMP_temperature;BMP_pressure;BME280_temperature;BME280_humidity;BME280_pressure;Samples;Min_cycle;Max_cycle;Signal;HPM_P1;HPM_P2
2023/05/17 00:00:44;;;;;;;12.63;3.30;;;;;;;11.92;61.79;102375.81;5011781;28;20042;-66
2023/05/17 00:03:10;;;;;;;12.85;3.30;;;;;;;11.88;62.04;102379.25;5013083;28;20108;-66
2023/05/17 00:05:35;;;;;;;11.02;3.25;;;;;;;11.84;62.21;102378.84;5013409;28;20034;-65
2023/05/17 00:08:00;;;;;;;10.85;3.42;;;;;;;11.84;61.75;102384.41;5011769;28;20121;-66
2023/05/17 00:10:26;;;;;;;12.07;3.63;;;;;;;11.86;62.25;102373.06;5015171;28;20037;-66
2023/05/17 00:12:51;;;;;;;15.63;3.42;;;;;;;11.85;61.99;102377.78;5012950;28;20045;-66
2023/05/17 00:15:16;;;;;;;10.73;3.40;;;;;;;11.74;62.18;102386.78;5011943;28;20099;-66
2023/05/17 00:17:42;;;;;;;10.05;3.10;;;;;;;11.78;62.27;102383.34;5013201;28;20484;-65
2023/05/17 00:20:07;;;;;;;9.23;3.08;;;;;;;11.78;62.22;102388.06;5014370;28;20044;-66
2023/05/17 00:22:33;;;;;;;12.32;3.42;;;;;;;11.80;62.07;102385.91;5021226;28;20136;-65
2023/05/17 00:24:58;;;;;;;12.43;4.05;;;;;;;11.74;62.44;102392.34;5018477;28;20389;-66
2023/05/17 00:27:23;;;;;;;11.00;3.30;;;;;;;11.69;62.57;102383.84;5029269;28;20465;-65
2023/05/17 00:29:49;;;;;;;13.63;3.50;;;;;;;11.69;62.90;102383.84;5013604;28;20113;-66
2023/05/17 00:32:14;;;;;;;9.93;3.30;;;;;;;11.70;62.57;102380.81;5027294;28;20491;-65
2023/05/17 00:34:40;;;;;;;15.82;3.95;;;;;;;11.70;62.92;102385.53;5031744;28;20060;-66
2023/05/17 00:37:05;;;;;;;13.98;3.85;;;;;;;11.69;63.09;102378.28;5028129;28;20076;-65
2023/05/17 00:39:30;;;;;;;16.48;3.90;;;;;;;11.66;62.92;102379.56;5012948;28;20033;-66
2023/05/17 00:41:56;;;;;;;15.40;3.95;;;;;;;11.65;63.31;102386.22;5011219;28;20056;-66
2023/05/17 00:44:21;;;;;;;14.63;3.58;;;;;;;11.65;63.36;102377.88;5012567;28;20363;-66
2023/05/17 00:46:46;;;;;;;10.50;3.92;;;;;;;11.59;63.34;102378.75;5023840;28;20025;-66
2023/05/17 00:49:11;;;;;;;12.77;3.50;;;;;;;11.58;63.13;102374.25;5029010;28;20469;-66
2023/05/17 00:51:38;;;;;;;14.32;4.13;;;;;;;11.53;63.48;102379.66;5012645;28;20021;-66
2023/05/17 00:54:04;;;;;;;12.32;3.67;;;;;;;11.54;63.35;102381.34;5014767;28;20059;-66
2023/05/17 00:56:30;;;;;;;14.90;4.03;;;;;;;11.56;63.27;102379.22;5031688;28;20108;-66
2023/05/17 00:58:56;;;;;;;14.20;3.92;;;;;;;11.43;63.60;102380.13;5017439;28;20022;-66
2023/05/17 01:01:21;;;;;;;13.32;3.53;;;;;;;11.45;63.62;102377.97;5011730;28;20045;-66
2023/05/17 01:03:47;;;;;;;18.05;4.00;;;;;;;11.42;63.91;102381.19;5014321;28;20426;-66
2023/05/17 01:06:13;;;;;;;9.75;3.47;;;;;;;11.43;63.45;102371.78;5010555;28;20718;-66
2023/05/17 01:08:38;;;;;;;16.83;3.95;;;;;;;11.45;63.25;102371.56;5011356;28;20117;-66
2023/05/17 01:11:52;;;;;;;12.65;3.40;;;;;;;11.49;62.90;102382.03;5009389;28;20030;-66
2023/05/17 01:14:50;;;;;;;12.30;3.53;;;;;;;11.52;63.15;102381.59;5005928;28;20051;-65
2023/05/17 01:17:19;;;;;;;15.98;4.00;;;;;;;11.42;63.39;102383.97;5015990;28;20024;-66
2023/05/17 01:20:17;;;;;;;15.93;3.85;;;;;;;11.38;63.69;102371.59;5013522;28;20033;-66
2023/05/17 01:22:57;;;;;;;12.77;4.28;;;;;;;11.45;63.55;102366.00;4997552;28;20049;-66
2023/05/17 01:25:41;;;;;;;11.93;3.55;;;;;;;11.38;63.46;102370.75;5010684;28;20545;-65
2023/05/17 01:28:07;;;;;;;9.18;4.20;;;;;;;11.36;63.46;102373.75;5012125;28;20071;-65
2023/05/17 01:30:34;;;;;;;13.85;3.85;;;;;;;11.33;63.34;102384.47;5014839;28;20259;-66
2023/05/17 01:33:01;;;;;;;12.48;4.28;;;;;;;11.27;63.69;102386.19;5021965;28;20393;-66
2023/05/17 01:35:26;;;;;;;11.43;4.25;;;;;;;11.24;63.77;102381.94;5012727;28;20034;-66
2023/05/17 01:37:52;;;;;;;12.63;4.07;;;;;;;11.26;63.90;102378.94;5007605;28;20036;-66
2023/05/17 01:40:19;;;;;;;11.80;4.22;;;;;;;11.25;64.11;102382.78;5011616;28;20559;-66
2023/05/17 01:42:49;;;;;;;16.70;4.20;;;;;;;11.21;64.80;102378.75;5016678;28;20092;-66
2023/05/17 01:45:23;;;;;;;12.55;4.20;;;;;;;11.19;64.70;102373.38;5010126;28;20046;-66
2023/05/17 01:48:20;;;;;;;12.57;4.18;;;;;;;11.32;64.18;102372.50;5011015;28;20053;-66
2023/05/17 01:50:51;;;;;;;11.65;4.25;;;;;;;11.27;64.64;102375.06;5010443;28;20572;-66
2023/05/17 01:53:16;;;;;;;15.35;4.72;;;;;;;11.26;65.00;102374.22;5011783;28;20112;-66
2023/05/17 01:55:55;;;;;;;14.27;4.25;;;;;;;11.31;64.75;102371.63;5009328;28;20118;-66
2023/05/17 01:58:24;;;;;;;13.18;4.43;;;;;;;11.26;65.18;102378.94;5011580;28;20036;-66
2023/05/17 02:00:51;;;;;;;17.58;5.05;;;;;;;11.26;64.89;102379.78;5026544;28;20113;-66
2023/05/17 02:03:20;;;;;;;16.25;4.93;;;;;;;11.23;65.53;102380.22;5030558;28;20064;-66
2023/05/17 02:05:45;;;;;;;13.75;4.80;;;;;;;11.24;65.18;102369.97;5018991;28;20040;-66
2023/05/17 02:08:11;;;;;;;12.52;4.25;;;;;;;11.24;65.15;102378.31;5024805;28;20038;-66
2023/05/17 02:10:37;;;;;;;11.55;4.55;;;;;;;11.22;65.33;102378.50;5030151;28;20148;-66
2023/05/17 02:13:02;;;;;;;17.25;4.82;;;;;;;11.20;65.66;102377.00;5013410;28;20079;-64
2023/05/17 02:15:28;;;;;;;13.55;5.05;;;;;;;11.16;65.59;102378.53;5013943;28;20046;-64
2023/05/17 02:17:53;;;;;;;15.10;5.13;;;;;;;11.17;66.10;102380.25;5012328;28;20212;-65
2023/05/17 02:20:19;;;;;;;12.82;4.53;;;;;;;11.11;65.76;102375.56;5014026;28;20028;-65
2023/05/17 02:22:44;;;;;;;14.88;4.78;;;;;;;11.15;65.44;102382.38;5018773;28;20087;-66
2023/05/17 02:25:09;;;;;;;11.82;5.07;;;;;;;11.11;65.77;102378.34;5010116;28;20370;-65
2023/05/17 02:27:35;;;;;;;11.75;4.60;;;;;;;11.06;65.80;102368.75;5014651;28;20117;-65
2023/05/17 02:30:01;;;;;;;13.63;5.05;;;;;;;11.04;66.00;102373.69;5020718;28;20029;-66
2023/05/17 02:32:27;;;;;;;13.63;4.88;;;;;;;11.04;66.04;102375.56;5016659;28;20030;-66
2023/05/17 02:34:53;;;;;;;18.17;5.60;;;;;;;10.98;65.98;102371.75;5013173;28;20021;-65
2023/05/17 02:37:19;;;;;;;17.02;5.15;;;;;;;11.06;65.89;102377.06;5018886;28;20130;-66
2023/05/17 02:39:44;;;;;;;14.02;5.13;;;;;;;11.03;65.81;102380.28;5010530;28;20050;-65
2023/05/17 02:42:09;;;;;;;12.43;5.10;;;;;;;11.03;65.68;102385.00;5017804;28;20373;-65
2023/05/17 02:44:34;;;;;;;15.38;4.70;;;;;;;11.04;65.74;102393.13;5018770;28;20030;-65
2023/05/17 02:47:00;;;;;;;17.13;5.40;;;;;;;11.06;65.81;102398.47;5014443;28;20416;-65
2023/05/17 02:49:25;;;;;;;13.82;4.70;;;;;;;11.05;65.83;102396.75;5010369;28;20779;-65
2023/05/17 02:51:51;;;;;;;13.27;4.78;;;;;;;11.01;65.75;102399.13;5006959;28;20026;-65
2023/05/17 02:54:16;;;;;;;15.18;5.13;;;;;;;11.02;66.25;102406.38;5008966;28;20026;-66
2023/05/17 02:56:41;;;;;;;11.88;5.50;;;;;;;11.05;66.38;102403.16;5005997;28;20040;-65
2023/05/17 02:59:06;;;;;;;18.15;5.68;;;;;;;11.08;66.34;102393.53;5006725;28;20029;-65
2023/05/17 03:01:32;;;;;;;17.23;5.43;;;;;;;11.05;66.65;102405.09;5009021;28;20120;-65
2023/05/17 03:03:57;;;;;;;16.35;4.97;;;;;;;11.09;66.90;102405.50;5005940;28;20018;-64
2023/05/17 03:06:22;;;;;;;14.05;5.80;;;;;;;11.08;66.92;102407.41;5015118;28;20035;-65
2023/05/17 03:08:47;;;;;;;19.83;5.93;;;;;;;11.07;67.16;102406.56;5025297;28;20504;-65
2023/05/17 03:11:13;;;;;;;17.30;5.80;;;;;;;11.09;67.26;102423.03;5009356;28;20030;-65
2023/05/17 03:13:38;;;;;;;19.58;5.85;;;;;;;11.08;67.09;102407.41;5010828;28;20540;-65
2023/05/17 03:16:04;;;;;;;16.83;5.63;;;;;;;11.10;67.35;102415.56;5010401;28;20077;-65
2023/05/17 03:18:29;;;;;;;14.85;5.50;;;;;;;11.04;67.85;102415.34;5009898;28;20026;-65
2023/05/17 03:20:55;;;;;;;14.82;5.53;;;;;;;11.09;68.16;102424.97;5009486;28;20369;-65
2023/05/17 03:23:20;;;;;;;15.10;5.57;;;;;;;11.07;67.51;102426.00;5016217;28;20028;-66
2023/05/17 03:25:45;;;;;;;15.43;5.53;;;;;;;11.07;67.50;102417.69;5030126;28;20017;-65
2023/05/17 03:28:11;;;;;;;15.02;5.68;;;;;;;11.07;67.68;102422.38;5029268;28;20056;-65
2023/05/17 03:30:36;;;;;;;15.20;6.20;;;;;;;11.04;67.95;102420.91;5016663;28;20145;-65
2023/05/17 03:33:01;;;;;;;17.17;6.03;;;;;;;11.07;67.88;102425.16;5013615;28;20377;-66
2023/05/17 03:35:26;;;;;;;14.52;6.18;;;;;;;11.09;67.96;102434.16;5014570;28;20052;-65
2023/05/17 03:37:52;;;;;;;13.77;5.55;;;;;;;11.15;67.88;102429.63;5020173;28;20504;-65
2023/05/17 03:40:17;;;;;;;16.08;5.90;;;;;;;11.12;68.01;102435.63;5018650;28;20034;-65
2023/05/17 03:42:42;;;;;;;17.40;5.78;;;;;;;11.07;68.07;102433.50;5012783;28;20034;-66
2023/05/17 03:45:08;;;;;;;15.80;6.15;;;;;;;11.11;68.19;102436.69;5013396;28;20034;-66
2023/05/17 03:47:33;;;;;;;14.50;6.53;;;;;;;11.12;68.26;102432.84;5013238;28;20032;-67
2023/05/17 03:49:58;;;;;;;12.82;5.55;;;;;;;11.12;68.14;102436.50;5013418;28;20037;-66
2023/05/17 03:52:24;;;;;;;15.80;5.60;;;;;;;11.18;68.15;102435.59;5014422;28;20478;-66
2023/05/17 03:54:50;;;;;;;16.63;5.80;;;;;;;11.16;68.35;102440.56;5013379;28;20030;-66
2023/05/17 03:57:15;;;;;;;18.73;6.40;;;;;;;11.18;68.01;102434.75;5016309;28;20473;-66
2023/05/17 03:59:40;;;;;;;13.98;6.03;;;;;;;11.20;67.98;102440.94;5030463;28;20037;-66
2023/05/17 04:02:06;;;;;;;14.68;5.60;;;;;;;11.19;67.90;102442.88;5031708;28;20499;-66
2023/05/17 04:04:31;;;;;;;19.95;5.90;;;;;;;11.16;68.05;102446.09;5033126;28;20041;-66
2023/05/17 04:06:56;;;;;;;14.73;6.13;;;;;;;11.17;67.96;102449.75;5028037;28;20049;-66
2023/05/17 04:09:22;;;;;;;13.82;6.03;;;;;;;11.11;68.09;102447.81;5013235;28;20030;-66
2023/05/17 04:11:47;;;;;;;18.25;6.10;;;;;;;11.12;68.12;102444.84;5012341;28;20037;-66
2023/05/17 04:14:13;;;;;;;16.17;6.45;;;;;;;11.07;68.29;102444.63;5012108;28;20033;-65
2023/05/17 04:16:38;;;;;;;19.75;6.30;;;;;;;11.08;68.16;102443.53;5016420;28;20113;-66
2023/05/17 04:19:03;;;;;;;14.63;6.38;;;;;;;11.07;68.06;102447.41;5024036;28;20033;-65
2023/05/17 04:21:30;;;;;;;19.50;5.93;;;;;;;11.02;68.11;102449.97;5013885;28;20040;-66
2023/05/17 04:23:55;;;;;;;14.63;5.90;;;;;;;11.03;68.27;102458.09;5023275;28;20052;-66
2023/05/17 04:26:20;;;;;;;15.00;6.45;;;;;;;11.00;68.31;102452.09;5031699;28;20022;-66
2023/05/17 04:28:46;;;;;;;14.32;6.18;;;;;;;11.02;68.62;102461.94;5015786;28;20037;-66
2023/05/17 04:31:14;;;;;;;13.98;6.28;;;;;;;10.99;68.42;102462.38;5020545;28;20049;-66
2023/05/17 04:33:39;;;;;;;18.25;6.78;;;;;;;11.00;68.55;102463.22;5024396;28;20029;-66
2023/05/17 04:36:05;;;;;;;16.77;6.57;;;;;;;11.03;68.51;102473.91;5012787;28;20036;-66
2023/05/17 04:38:30;;;;;;;19.38;6.85;;;;;;;11.02;68.65;102469.44;5020484;28;20025;-66
2023/05/17 04:41:05;;;;;;;18.17;6.75;;;;;;;11.01;68.92;102476.91;5013542;28;20041;-66
2023/05/17 04:43:32;;;;;;;16.40;7.32;;;;;;;10.99;68.93;102480.97;5011562;28;20114;-66
2023/05/17 04:45:58;;;;;;;21.30;6.80;;;;;;;11.03;68.73;102485.03;5028736;28;20563;-66
2023/05/17 04:48:25;;;;;;;18.63;6.72;;;;;;;10.98;68.85;102487.59;5029669;28;20187;-66
2023/05/17 04:50:50;;;;;;;19.42;6.68;;;;;;;11.01;69.08;102485.25;5028955;28;20095;-65
2023/05/17 04:53:15;;;;;;;13.02;6.32;;;;;;;10.99;69.13;102492.94;5012848;28;20038;-65
2023/05/17 04:55:41;;;;;;;17.77;6.95;;;;;;;11.03;68.96;102491.44;5020259;28;20040;-66
2023/05/17 04:58:08;;;;;;;17.20;6.75;;;;;;;11.07;68.93;102491.84;5031894;28;20044;-66
2023/05/17 05:00:33;;;;;;;16.48;6.97;;;;;;;11.04;69.16;102495.94;5026613;28;20456;-65
2023/05/17 05:02:59;;;;;;;14.55;6.82;;;;;;;11.03;69.27;102504.47;5010633;28;20033;-66
2023/05/17 05:05:24;;;;;;;17.35;6.78;;;;;;;11.07;69.60;102502.97;5014159;28;20038;-66
2023/05/17 05:07:50;;;;;;;17.48;7.40;;;;;;;11.07;69.53;102502.97;5013444;28;20041;-66
2023/05/17 05:10:15;;;;;;;18.52;6.63;;;;;;;11.06;69.48;102504.91;5024355;28;20025;-65
2023/05/17 05:12:41;;;;;;;16.60;7.28;;;;;;;11.11;69.71;102514.50;5017776;28;20079;-66
2023/05/17 05:15:07;;;;;;;18.25;7.22;;;;;;;11.09;69.92;102511.09;5018450;28;20038;-64
2023/05/17 05:17:32;;;;;;;19.92;7.13;;;;;;;11.13;69.45;102515.16;5012591;28;20224;-65
2023/05/17 05:19:58;;;;;;;15.63;6.28;;;;;;;11.13;70.31;102524.34;5011596;28;20037;-65
2023/05/17 05:22:24;;;;;;;18.15;7.05;;;;;;;11.23;69.82;102523.88;5019977;28;20120;-65
2023/05/17 05:24:49;;;;;;;17.30;6.47;;;;;;;11.23;70.15;102529.44;5013923;28;20129;-66
2023/05/17 05:27:14;;;;;;;17.77;7.60;;;;;;;11.27;70.07;102526.00;5018834;28;20164;-64
2023/05/17 05:29:41;;;;;;;17.63;6.95;;;;;;;11.32;70.18;102533.72;5019074;28;20060;-66
2023/05/17 05:32:07;;;;;;;15.60;6.45;;;;;;;11.41;70.11;102532.41;5012787;28;20034;-65
2023/05/17 05:34:32;;;;;;;18.38;7.25;;;;;;;11.40;70.38;102530.72;5026447;28;20099;-65
2023/05/17 05:36:58;;;;;;;14.10;5.85;;;;;;;11.42;70.33;102542.47;5010591;28;20068;-64
2023/05/17 05:39:23;;;;;;;21.20;7.00;;;;;;;11.49;70.54;102534.97;5010980;28;20147;-65
2023/05/17 05:41:50;;;;;;;19.70;7.22;;;;;;;11.47;70.66;102539.88;5015911;28;20041;-65
2023/05/17 05:44:16;;;;;;;21.67;6.45;;;;;;;11.55;70.77;102545.22;5018946;28;20060;-65
2023/05/17 05:46:41;;;;;;;20.30;7.75;;;;;;;11.64;70.01;102548.59;5018614;28;20462;-65
2023/05/17 05:49:06;;;;;;;17.65;6.95;;;;;;;11.74;70.15;102548.13;5013422;28;20053;-65
2023/05/17 05:51:32;;;;;;;19.65;6.78;;;;;;;11.82;70.13;102547.88;5010703;28;20444;-66
2023/05/17 05:53:58;;;;;;;22.52;6.88;;;;;;;11.94;70.05;102553.66;5016915;28;20465;-64
2023/05/17 05:56:26;;;;;;;16.83;6.20;;;;;;;12.08;69.13;102551.66;5018648;28;20171;-65
2023/05/17 05:58:51;;;;;;;16.58;6.05;;;;;;;12.17;68.93;102550.34;5015513;28;20393;-65
2023/05/17 06:01:16;;;;;;;21.20;6.55;;;;;;;12.23;68.36;102552.25;5024968;28;20109;-68
2023/05/17 06:03:42;;;;;;;20.13;6.05;;;;;;;12.30;68.06;102555.84;5019253;28;20029;-65
2023/05/17 06:06:07;;;;;;;16.05;5.60;;;;;;;12.41;67.69;102566.25;5007198;28;20041;-66
2023/05/17 06:08:32;;;;;;;18.10;5.40;;;;;;;12.50;67.16;102569.63;5021488;28;20040;-66
2023/05/17 06:10:57;;;;;;;16.65;5.43;;;;;;;12.63;67.19;102577.91;5014506;28;20115;-65
2023/05/17 06:13:23;;;;;;;16.73;5.40;;;;;;;12.66;65.35;102577.44;5019746;28;20038;-68
2023/05/17 06:15:48;;;;;;;18.92;5.78;;;;;;;12.71;65.21;102574.84;5007260;28;20054;-68
2023/05/17 06:18:13;;;;;;;17.77;4.88;;;;;;;12.81;65.04;102577.13;5009987;28;20034;-68
2023/05/17 06:20:39;;;;;;;19.10;5.28;;;;;;;12.86;63.71;102582.88;5010684;28;20042;-67
2023/05/17 06:23:04;;;;;;;18.80;5.30;;;;;;;12.93;63.67;102586.47;5015764;28;20037;-66
2023/05/17 06:25:29;;;;;;;18.50;4.95;;;;;;;12.97;63.03;102587.72;5005483;28;20481;-67
2023/05/17 06:27:55;;;;;;;15.73;4.40;;;;;;;13.01;63.28;102599.28;5018531;28;20080;-67
2023/05/17 06:30:21;;;;;;;18.27;4.75;;;;;;;13.06;62.72;102595.81;5007399;28;20029;-67
2023/05/17 06:32:46;;;;;;;17.83;5.10;;;;;;;13.12;61.84;102594.88;5010511;28;20083;-67
2023/05/17 06:35:11;;;;;;;16.77;4.25;;;;;;;13.17;61.19;102595.06;5017015;28;20124;-67
2023/05/17 06:37:36;;;;;;;14.38;4.65;;;;;;;13.23;60.83;102592.22;5016083;28;20033;-68
2023/05/17 06:40:05;;;;;;;14.55;4.28;;;;;;;13.28;60.88;102588.75;5020970;28;20084;-68
2023/05/17 06:42:30;;;;;;;18.45;5.13;;;;;;;13.32;60.73;102589.16;5008886;28;20033;-70
2023/05/17 06:44:56;;;;;;;13.70;3.92;;;;;;;13.34;60.16;102592.56;5010752;28;20037;-65
2023/05/17 06:47:21;;;;;;;11.75;3.90;;;;;;;13.46;59.42;102596.31;5024543;28;20038;-68
2023/05/17 06:49:46;;;;;;;15.88;3.55;;;;;;;13.46;57.43;102602.75;5014433;28;20048;-69
2023/05/17 06:52:12;;;;;;;14.30;3.42;;;;;;;13.56;56.35;102596.66;5009987;28;20045;-68
2023/05/17 06:54:37;;;;;;;13.35;3.35;;;;;;;13.60;56.35;102597.03;5011576;28;20033;-71
2023/05/17 06:57:03;;;;;;;13.07;3.28;;;;;;;13.72;56.32;102596.03;5019244;28;20044;-70
2023/05/17 06:59:28;;;;;;;10.90;3.22;;;;;;;13.79;55.17;102597.88;5012452;28;20053;-69
2023/05/17 07:01:54;;;;;;;15.38;3.17;;;;;;;13.89;54.85;102599.06;5015220;28;20069;-71
2023/05/17 07:04:19;;;;;;;13.00;2.70;;;;;;;13.95;54.72;102598.13;5014467;28;20049;-69
2023/05/17 07:06:45;;;;;;;16.25;3.38;;;;;;;14.05;54.29;102599.53;5013094;28;20056;-67
2023/05/17 07:09:11;;;;;;;13.57;3.15;;;;;;;14.13;53.91;102604.78;5019519;28;20025;-69
2023/05/17 07:11:36;;;;;;;8.88;2.58;;;;;;;14.18;53.30;102610.50;5017836;28;20048;-69
2023/05/17 07:14:01;;;;;;;16.05;3.28;;;;;;;14.25;51.90;102608.47;5016429;28;20803;-68
2023/05/17 07:16:27;;;;;;;13.20;3.00;;;;;;;14.37;52.46;102617.78;5019719;28;20056;-66
2023/05/17 07:18:52;;;;;;;13.93;2.92;;;;;;;14.40;50.95;102614.50;5013590;28;20068;-65
2023/05/17 07:21:17;;;;;;;14.63;3.35;;;;;;;14.44;49.97;102614.91;5011118;28;20041;-67
2023/05/17 07:23:42;;;;;;;12.85;2.90;;;;;;;14.51;50.58;102618.50;5018870;28;20555;-65
2023/05/17 07:26:08;;;;;;;12.73;2.67;;;;;;;14.56;49.84;102614.97;5020774;28;20051;-64
2023/05/17 07:28:33;;;;;;;13.98;2.88;;;;;;;14.75;50.41;102616.63;5016690;28;20057;-64
2023/05/17 07:30:58;;;;;;;16.55;3.15;;;;;;;14.81;49.38;102614.81;5021144;28;20263;-63
2023/05/17 07:33:24;;;;;;;10.82;2.78;;;;;;;14.86;49.53;102621.41;5024921;28;20104;-65
2023/05/17 07:35:49;;;;;;;10.15;2.30;;;;;;;14.87;48.28;102611.91;5024097;28;20025;-65
2023/05/17 07:38:15;;;;;;;12.57;2.75;;;;;;;14.84;47.17;102625.53;5028050;28;20029;-66
2023/05/17 07:40:41;;;;;;;13.00;2.45;;;;;;;14.71;46.75;102637.75;5024982;28;20073;-65
2023/05/17 07:43:06;;;;;;;11.38;2.58;;;;;;;14.61;47.39;102627.13;5027854;28;20049;-66
2023/05/17 07:45:31;;;;;;;10.27;2.40;;;;;;;14.63;48.16;102635.31;5025989;28;20121;-66
2023/05/17 07:47:56;;;;;;;14.02;2.53;;;;;;;14.57;47.54;102642.69;5016303;28;20145;-65
2023/05/17 07:50:22;;;;;;;11.65;2.83;;;;;;;14.53;47.64;102640.59;5020513;28;20022;-65
2023/05/17 07:52:47;;;;;;;15.60;2.97;;;;;;;14.39;48.01;102642.69;5021059;28;20034;-67
2023/05/17 07:55:13;;;;;;;11.60;2.60;;;;;;;14.35;47.11;102650.69;5015104;28;20029;-66
2023/05/17 07:57:38;;;;;;;12.05;2.55;;;;;;;14.39;47.07;102637.97;5016239;28;20496;-67
2023/05/17 08:00:05;;;;;;;9.95;2.20;;;;;;;14.49;47.41;102651.38;5028267;28;20038;-66
2023/05/17 08:02:30;;;;;;;11.88;2.47;;;;;;;14.52;45.64;102650.06;5015498;28;20525;-67
2023/05/17 08:04:55;;;;;;;10.52;2.22;;;;;;;14.64;45.92;102645.38;5013081;28;20038;-67
2023/05/17 08:07:20;;;;;;;10.98;2.47;;;;;;;14.74;46.08;102642.88;5024572;28;20188;-66
2023/05/17 08:09:46;;;;;;;11.13;2.20;;;;;;;14.82;43.72;102648.13;5015066;28;20040;-66
2023/05/17 08:12:11;;;;;;;9.80;2.10;;;;;;;14.93;43.92;102638.06;5020408;28;20393;-66
2023/05/17 08:14:38;;;;;;;15.43;2.53;;;;;;;14.92;45.50;102642.81;5012031;28;20050;-65
2023/05/17 08:17:04;;;;;;;9.95;2.45;;;;;;;14.99;44.01;102642.72;5021760;28;20087;-67
2023/05/17 08:19:30;;;;;;;9.52;2.08;;;;;;;15.08;44.05;102637.63;5011964;28;20149;-66
2023/05/17 08:21:55;;;;;;;10.10;2.40;;;;;;;15.12;42.23;102644.44;5015041;28;20144;-67
2023/05/17 08:24:21;;;;;;;10.32;2.05;;;;;;;15.15;42.42;102646.75;5029317;28;20036;-66
2023/05/17 08:26:46;;;;;;;12.32;2.25;;;;;;;15.09;43.19;102656.09;5024738;28;20060;-67
2023/05/17 08:29:12;;;;;;;10.25;2.33;;;;;;;15.00;44.17;102658.38;5027899;28;20662;-66
2023/05/17 08:31:37;;;;;;;9.07;2.40;;;;;;;14.89;44.71;102651.66;5016744;28;20385;-67
2023/05/17 08:34:02;;;;;;;13.57;3.05;;;;;;;14.92;45.13;102651.19;5024611;28;20040;-66
2023/05/17 08:36:27;;;;;;;10.65;2.15;;;;;;;15.02;44.92;102649.78;5021889;28;20022;-67
2023/05/17 08:38:53;;;;;;;12.25;2.20;;;;;;;15.02;42.84;102644.19;5012501;28;20497;-66
2023/05/17 08:41:19;;;;;;;10.57;2.20;;;;;;;15.12;43.41;102645.28;5021165;28;20405;-65
2023/05/17 08:43:47;;;;;;;9.70;2.28;;;;;;;15.23;42.50;102647.25;5018884;28;20515;-67
2023/05/17 08:46:14;;;;;;;10.00;2.20;;;;;;;15.26;41.92;102651.53;5030376;28;20389;-68
2023/05/17 08:48:42;;;;;;;11.27;2.58;;;;;;;15.34;41.98;102648.38;5012473;28;20175;-66
2023/05/17 08:51:10;;;;;;;9.05;1.92;;;;;;;15.35;42.78;102655.66;5026945;28;20033;-67
2023/05/17 08:53:36;;;;;;;8.15;1.90;;;;;;;15.34;42.84;102651.16;5010017;28;20034;-68
2023/05/17 08:56:04;;;;;;;11.07;2.40;;;;;;;15.29;42.96;102659.44;5020250;28;20121;-67
2023/05/17 08:58:33;;;;;;;10.70;2.20;;;;;;;15.30;42.50;102663.94;5022914;28;20469;-67
2023/05/17 09:01:00;;;;;;;10.88;2.10;;;;;;;15.41;42.23;102659.47;5020293;28;20029;-68
2023/05/17 09:03:26;;;;;;;8.88;2.20;;;;;;;15.47;42.05;102653.72;5011260;28;20028;-66
2023/05/17 09:05:55;;;;;;;11.15;2.05;;;;;;;15.52;41.38;102660.53;5009755;28;20400;-66
2023/05/17 09:08:21;;;;;;;11.82;2.33;;;;;;;15.58;42.15;102656.78;5011241;28;20044;-66
2023/05/17 09:10:46;;;;;;;12.80;2.35;;;;;;;15.64;42.32;102653.88;5025943;28;20061;-67
2023/05/17 09:13:12;;;;;;;6.65;2.05;;;;;;;15.77;41.79;102654.75;5014959;28;20980;-66
2023/05/17 09:15:41;;;;;;;9.35;2.33;;;;;;;15.79;41.61;102655.34;5014477;28;20072;-67
2023/05/17 09:18:10;;;;;;;9.65;1.98;;;;;;;15.83;41.82;102659.34;5015281;28;20046;-67
2023/05/17 09:20:35;;;;;;;8.10;2.00;;;;;;;15.88;41.41;102646.34;5022012;28;20072;-67
2023/05/17 09:23:05;;;;;;;6.90;1.80;;;;;;;15.95;41.64;102654.59;5015260;28;20034;-67
2023/05/17 09:25:31;;;;;;;7.65;1.95;;;;;;;16.03;40.53;102648.63;5022019;28;20033;-68
2023/05/17 09:28:10;;;;;;;6.72;1.75;;;;;;;16.09;40.89;102649.59;5018534;28;20111;-68
2023/05/17 09:30:38;;;;;;;8.38;2.30;;;;;;;16.10;39.92;102640.09;5012489;28;20026;-67
2023/05/17 09:33:05;;;;;;;9.45;2.42;;;;;;;16.13;40.47;102653.59;5012828;28;20030;-68
2023/05/17 09:35:31;;;;;;;12.85;2.10;;;;;;;16.23;42.08;102662.25;5017365;28;20021;-68
2023/05/17 09:38:10;;;;;;;8.50;2.30;;;;;;;16.20;41.03;102651.53;5030237;28;20082;-68
2023/05/17 09:40:40;;;;;;;10.20;1.92;;;;;;;16.09;40.83;102653.25;5020863;28;20080;-66
2023/05/17 09:43:06;;;;;;;5.93;1.80;;;;;;;16.14;40.72;102649.69;5010260;28;20038;-68
2023/05/17 09:45:32;;;;;;;9.63;2.10;;;;;;;16.24;41.25;102647.13;5020183;28;20033;-68
2023/05/17 09:48:13;;;;;;;8.30;2.20;;;;;;;16.20;42.15;102645.94;5017393;28;20065;-69
2023/05/17 09:50:46;;;;;;;13.30;2.75;;;;;;;16.07;41.83;102651.78;5022084;28;20025;-69
2023/05/17 09:53:21;;;;;;;10.02;2.13;;;;;;;16.10;42.59;102652.13;5020744;28;20381;-68
2023/05/17 09:55:53;;;;;;;12.43;2.13;;;;;;;16.03;41.48;102651.41;5014171;28;20456;-62
2023/05/17 09:58:18;;;;;;;9.85;2.10;;;;;;;15.95;40.68;102652.69;5012539;28;20037;-66
2023/05/17 10:00:45;;;;;;;10.40;2.17;;;;;;;16.08;40.52;102653.50;5011459;28;20030;-68
2023/05/17 10:03:12;;;;;;;8.32;2.33;;;;;;;16.13;40.83;102653.59;5010628;28;20049;-67
2023/05/17 10:05:42;;;;;;;11.60;2.20;;;;;;;16.16;41.26;102653.97;5015452;28;20029;-66
2023/05/17 10:08:08;;;;;;;9.60;2.03;;;;;;;16.21;41.33;102653.22;5011065;28;20044;-66
2023/05/17 10:10:35;;;;;;;9.60;2.20;;;;;;;16.27;40.44;102663.44;5026797;28;20042;-66
2023/05/17 10:13:05;;;;;;;9.55;2.38;;;;;;;16.26;40.37;102653.31;5029501;28;20033;-66
2023/05/17 10:15:32;;;;;;;10.27;2.50;;;;;;;16.38;40.10;102653.28;5016665;28;20169;-66
2023/05/17 10:17:59;;;;;;;7.72;2.30;;;;;;;16.48;40.35;102666.69;5014874;28;20029;-66
2023/05/17 10:20:25;;;;;;;9.75;2.38;;;;;;;16.52;40.40;102659.47;5009247;28;20061;-66
2023/05/17 10:22:51;;;;;;;6.95;1.80;;;;;;;16.56;40.43;102666.28;5028611;28;20090;-67
2023/05/17 10:25:17;;;;;;;10.63;2.10;;;;;;;16.63;40.28;102656.63;5027897;28;20026;-66
2023/05/17 10:27:42;;;;;;;9.60;2.17;;;;;;;16.61;39.98;102653.22;5026933;28;20481;-67
2023/05/17 10:30:10;;;;;;;5.70;1.92;;;;;;;16.65;39.21;102657.22;5028894;28;20034;-66
2023/05/17 10:32:35;;;;;;;5.63;1.77;;;;;;;16.64;39.13;102646.25;5027909;28;20176;-63
2023/05/17 10:35:03;;;;;;;8.55;2.60;;;;;;;16.70;39.49;102650.84;5011737;28;20474;-63
2023/05/17 10:37:29;;;;;;;6.45;1.95;;;;;;;16.67;40.50;102651.38;5007588;28;20400;-64
2023/05/17 10:39:55;;;;;;;8.75;2.00;;;;;;;16.69;39.52;102644.38;5009914;28;20018;-64
2023/05/17 10:42:21;;;;;;;6.45;2.30;;;;;;;16.72;39.97;102640.25;5011671;28;20120;-66
2023/05/17 10:44:47;;;;;;;7.15;1.83;;;;;;;16.65;40.30;102639.53;5018404;28;20037;-66
2023/05/17 10:47:13;;;;;;;9.23;2.33;;;;;;;16.62;38.56;102642.84;5017792;28;20065;-68
2023/05/17 10:49:40;;;;;;;8.77;1.80;;;;;;;16.64;37.90;102638.69;5011998;28;20506;-67
2023/05/17 10:52:15;;;;;;;7.28;1.77;;;;;;;16.69;38.91;102647.19;5016456;28;20052;-67
2023/05/17 10:54:42;;;;;;;7.72;1.77;;;;;;;16.81;38.68;102647.19;5006932;28;20038;-67
2023/05/17 10:57:17;;;;;;;8.40;1.67;;;;;;;16.89;38.86;102631.88;5010445;28;20026;-66
2023/05/17 11:00:18;;;;;;;6.03;1.67;;;;;;;16.89;38.69;102624.31;5015307;28;20034;-67
2023/05/17 11:02:43;;;;;;;4.53;1.40;;;;;;;16.87;37.28;102636.91;5008325;28;20103;-66
2023/05/17 11:05:23;;;;;;;7.43;2.05;;;;;;;16.92;38.01;102628.59;5009343;28;20090;-67
2023/05/17 11:07:48;;;;;;;7.95;1.90;;;;;;;16.88;36.82;102625.44;5008741;28;20121;-67
2023/05/17 11:10:15;;;;;;;5.50;1.67;;;;;;;16.89;37.21;102618.72;5018934;28;20739;-67
2023/05/17 11:12:46;;;;;;;8.73;1.70;;;;;;;16.91;36.78;102621.28;5009881;28;20105;-67
2023/05/17 11:15:14;;;;;;;4.65;1.50;;;;;;;16.97;36.59;102625.03;5010659;28;20042;-69
2023/05/17 11:17:42;;;;;;;5.70;1.58;;;;;;;16.97;36.32;102623.06;5019145;28;20075;-65